createdAt,value
2023-05-08T00:00:35.830Z,75.20
2023-05-08T00:01:35.832Z,75.34
2023-05-08T00:02:35.894Z,75.60
2023-05-08T00:03:35.989Z,74.86
2023-05-08T00:04:35.913Z,74.96
2023-05-08T00:05:35.839Z,75.27
2023-05-08T00:06:35.925Z,75.37
2023-05-08T00:07:35.938Z,74.96
2023-05-08T00:08:35.948Z,74.86
2023-05-08T00:09:35.976Z,74.76
2023-05-08T00:10:35.978Z,74.55
2023-05-08T00:11:35.973Z,74.32
2023-05-08T00:12:36.052Z,74.25
2023-05-08T00:13:36.061Z,74.35
2023-05-08T00:14:36.166Z,74.25
2023-05-08T00:15:36.169Z,74.55
2023-05-08T00:16:36.221Z,74.79
2023-05-08T00:17:36.292Z,75.06
2023-05-08T00:18:36.221Z,74.69
2023-05-08T00:19:36.238Z,75.20
2023-05-08T00:20:36.246Z,75.51
2023-05-08T00:21:36.246Z,75.60
2023-05-08T00:22:36.259Z,75.10
2023-05-08T00:23:36.240Z,74.69
2023-05-08T00:24:36.272Z,75.20
2023-05-08T00:25:36.252Z,75.10
2023-05-08T00:26:36.252Z,75.10
2023-05-08T00:27:36.246Z,74.69
2023-05-08T00:28:36.254Z,74.90
2023-05-08T00:29:36.251Z,74.96
2023-05-08T00:30:36.262Z,74.04
2023-05-08T00:31:36.321Z,73.33
2023-05-08T00:32:36.317Z,74.15
2023-05-08T00:33:36.314Z,73.64
2023-05-08T00:34:36.321Z,74.25
2023-05-08T00:35:36.319Z,74.28
2023-05-08T00:36:36.320Z,74.69
2023-05-08T00:37:36.316Z,74.28
2023-05-08T00:38:36.332Z,74.38
2023-05-08T00:39:36.353Z,74.49
2023-05-08T00:40:36.354Z,74.35
2023-05-08T00:41:36.353Z,74.49
2023-05-08T00:42:36.354Z,74.69
2023-05-08T00:43:36.355Z,74.99
2023-05-08T00:44:36.373Z,74.38
2023-05-08T00:45:36.387Z,74.45
2023-05-08T00:46:36.424Z,73.54
2023-05-08T00:47:36.445Z,73.74
2023-05-08T00:48:36.424Z,74.04
2023-05-08T00:49:36.422Z,74.04
2023-05-08T00:50:36.451Z,73.64
2023-05-08T00:51:36.439Z,73.94
2023-05-08T00:52:36.440Z,73.19
2023-05-08T00:53:36.442Z,74.18
2023-05-08T00:54:36.526Z,74.58
2023-05-08T00:55:36.534Z,74.73
2023-05-08T00:56:36.524Z,74.99
2023-05-08T00:57:36.519Z,74.45
2023-05-08T00:58:36.517Z,73.71
2023-05-08T00:59:36.528Z,73.74
2023-05-08T01:00:36.556Z,74.38
2023-05-08T01:01:36.561Z,74.49
2023-05-08T01:02:36.641Z,74.04
2023-05-08T01:03:36.685Z,73.84
2023-05-08T01:04:36.608Z,73.94
2023-05-08T01:05:36.650Z,73.94
2023-05-08T01:06:36.631Z,73.88
2023-05-08T01:07:36.633Z,74.83
2023-05-08T01:08:36.644Z,74.99
2023-05-08T01:09:36.673Z,74.49
2023-05-08T01:10:36.726Z,74.35
2023-05-08T01:11:36.699Z,73.64
2023-05-08T01:12:36.815Z,73.94
2023-05-08T01:13:36.763Z,73.74
2023-05-08T01:14:36.814Z,73.64
2023-05-08T01:15:36.927Z,73.94
2023-05-08T01:16:36.946Z,74.18
2023-05-08T01:17:37.016Z,73.84
2023-05-08T01:18:37.009Z,73.54
2023-05-08T01:19:37.032Z,73.30
2023-05-08T01:20:37.059Z,73.30
2023-05-08T01:21:37.126Z,73.30
2023-05-08T01:22:37.146Z,72.78
2023-05-08T01:23:37.159Z,72.86
2023-05-08T01:24:37.193Z,73.26
2023-05-08T01:25:37.265Z,74.49
2023-05-08T01:26:37.276Z,74.15
2023-05-08T01:27:37.330Z,74.04
2023-05-08T01:28:37.354Z,74.15
2023-05-08T01:29:37.352Z,73.94
2023-05-08T01:30:37.409Z,73.74
2023-05-08T01:31:37.421Z,74.58
2023-05-08T01:32:37.485Z,74.58
2023-05-08T01:33:37.498Z,75.13
2023-05-08T01:34:37.439Z,74.79
2023-05-08T01:35:37.478Z,74.38
2023-05-08T01:36:37.504Z,73.84
2023-05-08T01:37:37.489Z,74.49
2023-05-08T01:38:37.540Z,74.18
2023-05-08T01:39:37.582Z,74.69
2023-05-08T01:40:37.611Z,74.35
2023-05-08T01:41:37.644Z,74.08
2023-05-08T01:42:37.708Z,74.99
2023-05-08T01:43:37.698Z,74.35
2023-05-08T01:44:37.706Z,74.04
2023-05-08T01:45:37.737Z,73.40
2023-05-08T01:46:37.844Z,73.30
2023-05-08T01:47:37.897Z,73.19
2023-05-08T01:48:37.870Z,73.02
2023-05-08T01:49:37.844Z,73.94
2023-05-08T01:50:37.850Z,73.84
2023-05-08T01:51:37.832Z,73.43
2023-05-08T01:52:37.905Z,73.43
2023-05-08T01:53:37.963Z,74.62
2023-05-08T01:54:37.969Z,74.90
2023-05-08T01:55:37.989Z,74.58
2023-05-08T01:56:38.046Z,74.58
2023-05-08T01:57:38.068Z,74.73
2023-05-08T01:58:38.143Z,75.23
2023-05-08T01:59:38.119Z,75.23
2023-05-08T02:00:38.189Z,74.28
2023-05-08T02:01:38.183Z,74.69
2023-05-08T02:02:38.417Z,74.73
2023-05-08T02:03:38.405Z,74.99
2023-05-08T02:04:38.323Z,74.04
2023-05-08T02:05:38.321Z,73.13
2023-05-08T02:06:38.347Z,73.54
2023-05-08T02:07:38.374Z,73.97
2023-05-08T02:08:38.436Z,74.42
2023-05-08T02:09:38.485Z,75.13
2023-05-08T02:10:38.498Z,74.79
2023-05-08T02:11:38.563Z,74.28
2023-05-08T02:12:38.586Z,74.38
2023-05-08T02:13:38.584Z,73.74
2023-05-08T02:14:38.622Z,73.84
2023-05-08T02:15:38.640Z,73.30
2023-05-08T02:16:38.720Z,72.78
2023-05-08T02:17:38.714Z,73.33
2023-05-08T02:18:38.714Z,73.64
2023-05-08T02:19:38.722Z,74.32
2023-05-08T02:20:38.744Z,75.34
2023-05-08T02:21:38.774Z,74.79
2023-05-08T02:22:38.781Z,73.97
2023-05-08T02:23:38.780Z,74.62
2023-05-08T02:24:38.836Z,75.34
2023-05-08T02:25:38.860Z,74.79
2023-05-08T02:26:38.910Z,74.38
2023-05-08T02:27:38.952Z,74.79
2023-05-08T02:28:38.966Z,74.69
2023-05-08T02:29:39.020Z,74.58
2023-05-08T02:30:39.004Z,73.97
2023-05-08T02:31:39.071Z,75.44
2023-05-08T02:32:39.063Z,75.10
2023-05-08T02:33:39.091Z,74.45
2023-05-08T02:34:42.878Z,73.54
2023-05-08T02:35:39.173Z,73.57
2023-05-08T02:36:39.230Z,74.73
2023-05-08T02:37:39.304Z,75.13
2023-05-08T02:38:39.297Z,75.54
2023-05-08T02:39:39.321Z,75.34
2023-05-08T02:40:39.371Z,75.16
2023-05-08T02:41:39.378Z,75.57
2023-05-08T02:42:39.364Z,75.44
2023-05-08T02:43:39.429Z,75.44
2023-05-08T02:44:39.455Z,74.69
2023-05-08T02:45:39.512Z,73.94
2023-05-08T02:46:39.647Z,74.28
2023-05-08T02:47:39.574Z,74.28
2023-05-08T02:48:39.608Z,75.57
2023-05-08T02:49:39.638Z,75.54
2023-05-08T02:50:39.665Z,74.69
2023-05-08T02:51:39.732Z,74.93
2023-05-08T02:52:39.719Z,75.54
2023-05-08T02:53:39.739Z,74.79
2023-05-08T02:54:39.832Z,73.97
2023-05-08T02:55:39.839Z,74.62
2023-05-08T02:56:39.845Z,74.83
2023-05-08T02:57:39.872Z,75.03
2023-05-08T02:58:39.874Z,75.03
2023-05-08T02:59:39.903Z,74.69
2023-05-08T03:00:39.903Z,75.03
2023-05-08T03:01:39.936Z,75.88
2023-05-08T03:02:40.054Z,76.09
2023-05-08T03:03:40.145Z,76.05
2023-05-08T03:04:40.037Z,75.48
2023-05-08T03:05:40.020Z,76.19
2023-05-08T03:06:40.064Z,75.85
2023-05-08T03:07:40.055Z,75.57
2023-05-08T03:08:40.062Z,75.98
2023-05-08T03:09:40.149Z,76.09
2023-05-08T03:10:40.204Z,76.53
2023-05-08T03:11:40.201Z,76.80
2023-05-08T03:12:42.603Z,76.29
2023-05-08T03:13:40.218Z,76.19
2023-05-08T03:14:40.240Z,75.54
2023-05-08T03:15:40.313Z,74.58
2023-05-08T03:16:40.296Z,75.03
2023-05-08T03:17:40.360Z,75.88
2023-05-08T03:18:40.312Z,75.88
2023-05-08T03:19:40.351Z,75.88
2023-05-08T03:20:40.437Z,76.19
2023-05-08T03:21:40.473Z,75.88
2023-05-08T03:22:40.515Z,75.98
2023-05-08T03:23:40.562Z,76.19
2023-05-08T03:24:40.555Z,76.39
2023-05-08T03:25:40.585Z,76.39
2023-05-08T03:26:40.644Z,76.39
2023-05-08T03:27:40.685Z,76.29
2023-05-08T03:28:40.743Z,76.84
2023-05-08T03:29:40.746Z,76.59
2023-05-08T03:30:40.810Z,75.78
2023-05-08T03:31:40.844Z,76.09
2023-05-08T03:32:40.889Z,76.29
2023-05-08T03:33:40.902Z,76.70
2023-05-08T03:34:40.893Z,76.12
2023-05-08T03:35:40.911Z,77.04
2023-05-08T03:36:40.922Z,77.14
2023-05-08T03:37:40.972Z,76.84
2023-05-08T03:38:40.976Z,77.14
2023-05-08T03:39:40.974Z,76.70
2023-05-08T03:40:40.995Z,76.93
2023-05-08T03:41:41.004Z,76.53
2023-05-08T03:42:41.057Z,76.50
2023-05-08T03:43:41.088Z,76.93
2023-05-08T03:44:41.131Z,77.45
2023-05-08T03:45:41.156Z,77.04
2023-05-08T03:46:41.235Z,76.93
2023-05-08T03:47:42.320Z,77.04
2023-05-08T03:48:41.210Z,76.90
2023-05-08T03:49:41.276Z,76.53
2023-05-08T03:50:41.301Z,77.14
2023-05-08T03:51:41.319Z,77.45
2023-05-08T03:52:41.331Z,76.29
2023-05-08T03:53:41.366Z,75.54
2023-05-08T03:54:41.427Z,76.43
2023-05-08T03:55:41.495Z,76.93
2023-05-08T03:56:41.522Z,77.04
2023-05-08T03:57:41.561Z,76.19
2023-05-08T03:58:41.579Z,76.09
2023-05-08T03:59:41.574Z,76.29
2023-05-08T04:00:41.627Z,76.22
2023-05-08T04:01:41.654Z,77.14
2023-05-08T04:02:42.519Z,76.93
2023-05-08T04:03:41.745Z,76.59
2023-05-08T04:04:41.695Z,75.88
2023-05-08T04:05:41.750Z,75.98
2023-05-08T04:06:49.522Z,76.22
2023-05-08T04:07:41.874Z,77.48
2023-05-08T04:08:41.936Z,78.00
2023-05-08T04:09:41.960Z,77.45
2023-05-08T04:10:41.995Z,76.84
2023-05-08T04:11:42.033Z,77.72
2023-05-08T04:12:42.067Z,78.30
2023-05-08T04:13:42.112Z,77.34
2023-05-08T04:14:42.137Z,77.28
2023-05-08T04:15:42.149Z,77.79
2023-05-08T04:16:42.228Z,77.79
2023-05-08T04:17:42.293Z,77.59
2023-05-08T04:18:42.236Z,78.13
2023-05-08T04:19:42.235Z,78.44
2023-05-08T04:20:43.244Z,77.55
2023-05-08T04:21:42.327Z,77.38
2023-05-08T04:22:42.351Z,77.59
2023-05-08T04:23:42.356Z,77.04
2023-05-08T04:24:42.343Z,76.22
2023-05-08T04:25:42.370Z,76.97
2023-05-08T04:26:42.373Z,77.89
2023-05-08T04:27:42.409Z,77.89
2023-05-08T04:28:42.374Z,77.38
2023-05-08T04:29:42.433Z,77.34
2023-05-08T04:30:42.445Z,76.63
2023-05-08T04:31:42.523Z,76.39
2023-05-08T04:32:44.255Z,75.98
2023-05-08T04:33:42.500Z,76.22
2023-05-08T04:34:42.605Z,77.25
2023-05-08T04:35:42.609Z,77.14
2023-05-08T04:36:42.670Z,77.38
2023-05-08T04:37:42.687Z,77.72
2023-05-08T04:38:42.706Z,78.00
2023-05-08T04:39:43.759Z,76.84
2023-05-08T04:40:42.782Z,76.09
2023-05-08T04:41:42.818Z,75.78
2023-05-08T04:42:42.833Z,76.43
2023-05-08T04:43:42.879Z,76.77
2023-05-08T04:44:42.969Z,76.84
2023-05-08T04:45:43.052Z,76.97
2023-05-08T04:46:43.124Z,77.08
2023-05-08T04:47:43.139Z,76.93
2023-05-08T04:48:43.111Z,76.73
2023-05-08T04:49:43.181Z,76.84
2023-05-08T04:50:43.273Z,77.14
2023-05-08T04:51:43.250Z,75.88
2023-05-08T04:52:43.298Z,76.43
2023-05-08T04:53:43.371Z,76.22
2023-05-08T04:54:43.412Z,76.73
2023-05-08T04:55:43.503Z,75.64
2023-05-08T04:56:43.538Z,75.74
2023-05-08T04:57:43.585Z,75.27
2023-05-08T04:58:43.672Z,75.34
2023-05-08T04:59:43.648Z,74.04
2023-05-08T05:00:43.648Z,72.48
2023-05-08T05:01:43.667Z,72.04
2023-05-08T05:02:43.739Z,72.72
2023-05-08T05:03:43.679Z,73.47
2023-05-08T05:04:43.671Z,73.47
2023-05-08T05:05:43.662Z,73.84
2023-05-08T05:06:43.695Z,73.02
2023-05-08T05:07:43.720Z,73.97
2023-05-08T05:08:43.745Z,74.11
2023-05-08T05:09:43.769Z,74.58
2023-05-08T05:10:43.808Z,73.19
2023-05-08T05:11:43.870Z,72.78
2023-05-08T05:12:43.953Z,72.14
2023-05-08T05:13:43.909Z,70.58
2023-05-08T05:14:43.868Z,69.70
2023-05-08T05:15:43.972Z,68.01
2023-05-08T05:16:43.969Z,66.63
2023-05-08T05:17:44.009Z,66.09
2023-05-08T05:18:43.924Z,65.82
2023-05-08T05:19:43.973Z,66.26
2023-05-08T05:20:44.017Z,66.36
2023-05-08T05:21:44.009Z,67.71
2023-05-08T05:22:44.056Z,67.81
2023-05-08T05:23:44.115Z,67.81
2023-05-08T05:24:44.096Z,66.69
2023-05-08T05:25:44.136Z,66.83
2023-05-08T05:26:44.162Z,65.69
2023-05-08T05:27:44.216Z,64.79
2023-05-08T05:28:44.217Z,63.37
2023-05-08T05:29:44.227Z,63.01
2023-05-08T05:30:44.244Z,61.16
2023-05-08T05:31:44.464Z,62.46
2023-05-08T05:32:44.319Z,62.96
2023-05-08T05:33:44.356Z,63.47
2023-05-08T05:34:44.396Z,62.16
2023-05-08T05:35:44.399Z,61.69
2023-05-08T05:36:44.372Z,61.73
2023-05-08T05:37:44.438Z,60.35
2023-05-08T05:38:44.468Z,61.72
2023-05-08T05:39:44.513Z,62.96
2023-05-08T05:40:44.547Z,62.33
2023-05-08T05:41:44.580Z,62.53
2023-05-08T05:42:44.601Z,61.56
2023-05-08T05:43:44.681Z,60.85
2023-05-08T05:44:44.664Z,60.62
2023-05-08T05:45:44.656Z,60.42
2023-05-08T05:46:44.838Z,61.46
2023-05-08T05:47:44.816Z,60.96
2023-05-08T05:48:44.801Z,60.39
2023-05-08T05:49:44.860Z,58.54
2023-05-08T05:50:44.923Z,57.38
2023-05-08T05:51:45.008Z,58.82
2023-05-08T05:52:44.993Z,58.59
2023-05-08T05:53:45.034Z,58.12
2023-05-08T05:54:45.093Z,58.59
2023-05-08T05:55:45.154Z,57.48
2023-05-08T05:56:45.207Z,59.81
2023-05-08T05:57:45.273Z,60.29
2023-05-08T05:58:45.256Z,59.56
2023-05-08T05:59:45.288Z,59.38
2023-05-08T06:00:45.357Z,59.96
2023-05-08T06:01:45.473Z,57.89
2023-05-08T06:02:45.554Z,57.28
2023-05-08T06:03:45.493Z,59.35
2023-05-08T06:04:45.482Z,60.55
2023-05-08T06:05:45.534Z,60.93
2023-05-08T06:06:45.586Z,59.42
2023-05-08T06:07:45.593Z,58.36
2023-05-08T06:08:45.594Z,56.87
2023-05-08T06:09:45.670Z,55.23
2023-05-08T06:10:45.693Z,56.29
2023-05-08T06:11:45.807Z,58.47
2023-05-08T06:12:45.882Z,59.58
2023-05-08T06:13:45.827Z,59.66
2023-05-08T06:14:45.819Z,58.65
2023-05-08T06:15:45.845Z,60.19
2023-05-08T06:16:45.924Z,59.33
2023-05-08T06:17:45.957Z,58.59
2023-05-08T06:18:45.938Z,58.95
2023-05-08T06:19:46.004Z,61.19
2023-05-08T06:20:46.049Z,62.19
2023-05-08T06:21:46.093Z,61.99
2023-05-08T06:22:46.099Z,62.30
2023-05-08T06:23:46.165Z,60.97
2023-05-08T06:24:46.129Z,59.00
2023-05-08T06:25:46.141Z,57.89
2023-05-08T06:26:46.189Z,57.96
2023-05-08T06:27:46.250Z,57.20
2023-05-08T06:28:46.323Z,56.60
2023-05-08T06:29:46.363Z,56.92
2023-05-08T06:30:46.403Z,56.75
2023-05-08T06:31:46.413Z,58.72
2023-05-08T06:32:46.461Z,58.14
2023-05-08T06:33:46.457Z,56.71
2023-05-08T06:34:46.475Z,54.38
2023-05-08T06:35:46.529Z,55.74
2023-05-08T06:36:46.547Z,55.51
2023-05-08T06:37:46.571Z,55.23
2023-05-08T06:38:46.605Z,56.40
2023-05-08T06:39:47.748Z,57.05
2023-05-08T06:40:46.621Z,57.83
2023-05-08T06:41:46.627Z,56.80
2023-05-08T06:42:46.629Z,56.54
2023-05-08T06:43:46.685Z,55.48
2023-05-08T06:44:46.766Z,54.38
2023-05-08T06:45:46.778Z,54.08
2023-05-08T06:46:46.899Z,54.45
2023-05-08T06:47:46.895Z,52.97
2023-05-08T06:48:46.895Z,52.26
2023-05-08T06:49:46.938Z,52.84
2023-05-08T06:50:46.988Z,54.22
2023-05-08T06:51:47.017Z,52.80
2023-05-08T06:52:47.042Z,53.55
2023-05-08T06:53:47.112Z,53.62
2023-05-08T06:54:47.149Z,52.37
2023-05-08T06:55:47.142Z,52.67
2023-05-08T06:56:47.229Z,52.44
2023-05-08T06:57:47.133Z,51.32
2023-05-08T06:59:00.637Z,51.24
2023-05-08T06:59:47.163Z,53.55
2023-05-08T07:00:47.219Z,53.80
2023-05-08T07:01:47.316Z,52.47
2023-05-08T07:02:47.304Z,53.39
2023-05-08T07:03:47.338Z,53.67
2023-05-08T07:04:47.455Z,55.21
2023-05-08T07:05:47.364Z,54.98
2023-05-08T07:06:47.471Z,54.53
2023-05-08T07:07:47.489Z,52.72
2023-05-08T07:08:47.491Z,53.09
2023-05-08T07:09:47.523Z,53.00
2023-05-08T07:10:47.582Z,53.02
2023-05-08T07:11:47.527Z,54.25
2023-05-08T07:12:47.566Z,54.22
2023-05-08T07:13:47.572Z,53.82
2023-05-08T07:14:48.011Z,53.45
2023-05-08T07:15:47.712Z,51.92
2023-05-08T07:16:47.689Z,53.55
2023-05-08T07:17:47.760Z,54.45
2023-05-08T07:18:47.682Z,54.65
2023-05-08T07:19:47.731Z,54.38
2023-05-08T07:20:47.758Z,54.91
2023-05-08T07:21:47.765Z,55.76
2023-05-08T07:22:47.849Z,56.04
2023-05-08T07:23:47.955Z,56.27
2023-05-08T07:24:47.884Z,57.20
2023-05-08T07:25:47.892Z,57.28
2023-05-08T07:26:47.939Z,56.38
2023-05-08T07:27:47.992Z,55.83
2023-05-08T07:28:48.045Z,56.60
2023-05-08T07:29:48.069Z,57.37
2023-05-08T07:30:48.117Z,56.24
2023-05-08T07:31:48.232Z,56.87
2023-05-08T07:32:48.492Z,56.71
2023-05-08T07:33:48.331Z,56.01
2023-05-08T07:34:50.150Z,56.04
2023-05-08T07:35:48.321Z,58.03
2023-05-08T07:36:48.329Z,57.85
2023-05-08T07:37:48.338Z,55.96
2023-05-08T07:38:48.411Z,55.26
2023-05-08T07:39:48.385Z,55.66
2023-05-08T07:40:48.716Z,54.63
2023-05-08T07:41:49.838Z,56.09
2023-05-08T07:42:49.507Z,56.36
2023-05-08T07:43:48.665Z,55.00
2023-05-08T07:44:54.712Z,53.95
2023-05-08T07:45:49.174Z,53.95
2023-05-08T07:46:48.730Z,52.57
2023-05-08T07:47:48.750Z,51.99
2023-05-08T07:48:48.716Z,53.14
2023-05-08T07:49:48.699Z,53.82
2023-05-08T07:50:48.723Z,53.14
2023-05-08T07:51:48.830Z,54.93
2023-05-08T07:52:50.412Z,55.55
2023-05-08T07:53:48.849Z,55.71
2023-05-08T07:54:48.863Z,53.85
2023-05-08T07:55:48.859Z,53.47
2023-05-08T07:56:48.909Z,54.58
2023-05-08T07:57:48.913Z,55.10
2023-05-08T07:58:48.906Z,55.51
2023-05-08T07:59:48.929Z,55.13
2023-05-08T08:00:48.957Z,53.45
2023-05-08T08:01:49.006Z,54.27
2023-05-08T08:02:49.052Z,54.32
2023-05-08T08:03:49.147Z,53.17
2023-05-08T08:04:49.003Z,53.75
2023-05-08T08:05:49.046Z,55.60
2023-05-08T08:06:49.049Z,54.72
2023-05-08T08:07:49.041Z,53.14
2023-05-08T08:08:49.113Z,52.19
2023-05-08T08:09:49.079Z,51.69
2023-05-08T08:10:49.122Z,50.04
2023-05-08T08:11:49.148Z,51.39
2023-05-08T08:12:49.143Z,51.20
2023-05-08T08:13:49.198Z,51.79
2023-05-08T08:14:49.193Z,50.62
2023-05-08T08:15:49.242Z,52.57
2023-05-08T08:16:49.252Z,52.44
2023-05-08T08:17:49.326Z,52.64
2023-05-08T08:18:49.301Z,53.39
2023-05-08T08:19:49.290Z,53.55
2023-05-08T08:20:49.320Z,53.64
2023-05-08T08:21:49.402Z,54.17
2023-05-08T08:22:49.379Z,53.55
2023-05-08T08:23:49.450Z,52.72
2023-05-08T08:24:49.513Z,52.09
2023-05-08T08:25:49.516Z,51.07
2023-05-08T08:26:49.555Z,51.47
2023-05-08T08:27:49.577Z,52.29
2023-05-08T08:28:49.632Z,52.44
2023-05-08T08:29:49.775Z,52.49
2023-05-08T08:30:49.728Z,51.34
2023-05-08T08:31:49.708Z,53.12
2023-05-08T08:32:49.780Z,53.02
2023-05-08T08:33:49.795Z,53.12
2023-05-08T08:34:49.837Z,53.07
2023-05-08T08:35:49.847Z,51.45
2023-05-08T08:36:49.884Z,51.15
2023-05-08T08:37:49.926Z,50.57
2023-05-08T08:38:49.909Z,49.15
2023-05-08T08:39:50.006Z,49.05
2023-05-08T08:40:50.001Z,48.88
2023-05-08T08:41:50.064Z,48.16
2023-05-08T08:42:50.068Z,47.44
2023-05-08T08:43:50.080Z,48.38
2023-05-08T08:44:50.184Z,47.96
2023-05-08T08:45:50.188Z,47.84
2023-05-08T08:46:50.356Z,47.00
2023-05-08T08:47:50.243Z,47.17
2023-05-08T08:48:50.248Z,48.95
2023-05-08T08:49:50.247Z,50.17
2023-05-08T08:50:50.233Z,50.79
2023-05-08T08:51:50.255Z,50.92
2023-05-08T08:52:50.289Z,49.55
2023-05-08T08:53:50.293Z,49.98
2023-05-08T08:54:50.307Z,50.27
2023-05-08T08:55:50.342Z,50.67
2023-05-08T08:56:50.368Z,50.92
2023-05-08T08:57:50.341Z,52.34
2023-05-08T08:58:50.366Z,51.37
2023-05-08T08:59:50.402Z,50.47
2023-05-08T09:00:50.494Z,49.80
2023-05-08T09:01:50.600Z,49.08
2023-05-08T09:02:50.740Z,48.28
2023-05-08T09:03:50.679Z,48.66
2023-05-08T09:04:50.670Z,47.99
2023-05-08T09:05:50.673Z,48.44
2023-05-08T09:06:50.650Z,47.07
2023-05-08T09:07:50.702Z,50.30
2023-05-08T09:08:50.762Z,51.07
2023-05-08T09:09:50.771Z,50.05
2023-05-08T09:10:50.819Z,49.18
2023-05-08T09:11:50.845Z,47.50
2023-05-08T09:12:50.929Z,46.88
2023-05-08T09:13:50.879Z,46.24
2023-05-08T09:14:50.907Z,45.52
2023-05-08T09:15:51.088Z,45.42
2023-05-08T09:16:51.072Z,45.72
2023-05-08T09:17:51.062Z,45.92
2023-05-08T09:18:51.067Z,45.23
2023-05-08T09:19:51.080Z,45.86
2023-05-08T09:20:51.072Z,47.22
2023-05-08T09:21:51.119Z,47.67
2023-05-08T09:22:51.100Z,47.85
2023-05-08T09:23:51.193Z,47.28
2023-05-08T09:24:51.216Z,47.08
2023-05-08T09:25:51.244Z,47.25
2023-05-08T09:26:51.315Z,48.56
2023-05-08T09:27:51.346Z,49.08
2023-05-08T09:28:51.351Z,46.98
2023-05-08T09:29:51.390Z,48.49
2023-05-08T09:30:51.487Z,46.66
2023-05-08T09:31:51.520Z,46.73
2023-05-08T09:32:51.564Z,46.14
2023-05-08T09:33:51.546Z,47.99
2023-05-08T09:34:51.592Z,46.90
2023-05-08T09:35:51.609Z,47.40
2023-05-08T09:36:51.710Z,47.25
2023-05-08T09:37:51.667Z,46.22
2023-05-08T09:38:51.675Z,45.79
2023-05-08T09:39:51.758Z,45.86
2023-05-08T09:40:51.770Z,47.55
2023-05-08T09:41:51.802Z,47.10
2023-05-08T09:42:51.852Z,48.27
2023-05-08T09:43:51.846Z,46.09
2023-05-08T09:44:51.909Z,46.27
2023-05-08T09:45:51.991Z,44.42
2023-05-08T09:46:52.011Z,43.21
2023-05-08T09:47:52.045Z,44.45
2023-05-08T09:48:52.009Z,44.02
2023-05-08T09:49:52.063Z,43.43
2023-05-08T09:50:52.149Z,44.83
2023-05-08T09:51:52.223Z,45.40
2023-05-08T09:52:52.216Z,45.23
2023-05-08T09:53:52.268Z,44.52
2023-05-08T09:54:52.325Z,45.00
2023-05-08T09:55:52.400Z,46.07
2023-05-08T09:56:52.412Z,45.14
2023-05-08T09:57:52.449Z,45.30
2023-05-08T09:58:52.492Z,46.19
2023-05-08T09:59:52.573Z,45.48
2023-05-08T10:00:52.642Z,46.04
2023-05-08T10:01:52.682Z,47.35
2023-05-08T10:02:52.740Z,46.64
2023-05-08T10:03:52.800Z,47.60
2023-05-08T10:04:52.789Z,48.37
2023-05-08T10:05:52.842Z,47.17
2023-05-08T10:06:54.562Z,47.63
2023-05-08T10:07:52.972Z,46.59
2023-05-08T10:08:52.994Z,45.50
2023-05-08T10:09:53.036Z,46.47
2023-05-08T10:10:53.079Z,45.06
2023-05-08T10:11:53.090Z,45.49
2023-05-08T10:12:53.122Z,44.56
2023-05-08T10:13:53.153Z,45.30
2023-05-08T10:14:53.149Z,46.64
2023-05-08T10:15:53.225Z,48.19
2023-05-08T10:16:53.296Z,47.73
2023-05-08T10:17:53.345Z,46.69
2023-05-08T10:18:53.315Z,45.68
2023-05-08T10:19:53.317Z,46.39
2023-05-08T10:20:53.382Z,47.55
2023-05-08T10:21:53.491Z,46.59
2023-05-08T10:22:53.484Z,45.65
2023-05-08T10:23:53.553Z,44.74
2023-05-08T10:24:53.578Z,45.23
2023-05-08T10:25:54.999Z,44.58
2023-05-08T10:27:05.772Z,43.66
2023-05-08T10:27:53.569Z,43.15
2023-05-08T10:28:53.623Z,43.55
2023-05-08T10:29:53.678Z,43.27
2023-05-08T10:30:53.712Z,43.79
2023-05-08T10:31:53.760Z,44.62
2023-05-08T10:32:53.801Z,44.10
2023-05-08T10:33:53.769Z,43.59
2023-05-08T10:34:53.823Z,43.59
2023-05-08T10:35:53.829Z,42.96
2023-05-08T10:36:54.259Z,43.17
2023-05-08T10:37:53.911Z,43.35
2023-05-08T10:38:53.951Z,44.67
2023-05-08T10:39:53.896Z,47.01
2023-05-08T10:40:53.925Z,47.31
2023-05-08T10:41:53.927Z,47.25
2023-05-08T10:42:53.969Z,47.85
2023-05-08T10:43:54.043Z,48.17
2023-05-08T10:44:54.093Z,49.26
2023-05-08T10:45:54.186Z,47.53
2023-05-08T10:46:54.119Z,47.58
2023-05-08T10:47:54.161Z,45.85
2023-05-08T10:48:54.146Z,45.12
2023-05-08T10:49:54.116Z,45.00
2023-05-08T10:50:54.171Z,45.14
2023-05-08T10:51:54.155Z,44.82
2023-05-08T10:52:54.575Z,46.66
2023-05-08T10:53:54.292Z,48.25
2023-05-08T10:54:54.407Z,48.57
2023-05-08T10:55:54.334Z,48.42
2023-05-08T10:56:54.378Z,47.88
2023-05-08T10:57:54.410Z,46.11
2023-05-08T10:58:54.579Z,45.37
2023-05-08T10:59:54.448Z,43.94
2023-05-08T11:00:54.448Z,43.52
2023-05-08T11:01:54.600Z,42.72
2023-05-08T11:02:54.687Z,42.42
2023-05-08T11:03:54.736Z,42.60
2023-05-08T11:04:54.647Z,43.25
2023-05-08T11:05:54.669Z,44.34
2023-05-08T11:06:54.709Z,43.57
2023-05-08T11:07:54.757Z,44.16
2023-05-08T11:08:54.891Z,43.47
2023-05-08T11:09:54.753Z,43.96
2023-05-08T11:10:54.776Z,45.00
2023-05-08T11:11:54.942Z,44.16
2023-05-08T11:12:54.852Z,44.14
2023-05-08T11:13:54.940Z,43.11
2023-05-08T11:14:54.836Z,42.40
2023-05-08T11:15:55.784Z,43.05
2023-05-08T11:16:55.697Z,43.87
2023-05-08T11:17:55.571Z,43.73
2023-05-08T11:18:54.876Z,43.60
2023-05-08T11:19:54.879Z,42.69
2023-05-08T11:20:54.869Z,42.50
2023-05-08T11:21:54.929Z,43.01
2023-05-08T11:22:54.928Z,42.38
2023-05-08T11:23:54.992Z,43.03
2023-05-08T11:24:55.033Z,43.52
2023-05-08T11:25:55.068Z,44.12
2023-05-08T11:26:55.065Z,43.41
2023-05-08T11:27:55.113Z,43.15
2023-05-08T11:28:55.179Z,43.52
2023-05-08T11:29:55.269Z,43.23
2023-05-08T11:30:55.221Z,43.78
2023-05-08T11:31:55.284Z,43.05
2023-05-08T11:32:55.266Z,44.56
2023-05-08T11:33:55.272Z,43.90
2023-05-08T11:34:55.353Z,42.95
2023-05-08T11:35:55.442Z,43.07
2023-05-08T11:36:55.409Z,42.77
2023-05-08T11:37:55.567Z,42.26
2023-05-08T11:38:56.401Z,41.63
2023-05-08T11:39:55.497Z,40.98
2023-05-08T11:40:55.540Z,43.05
2023-05-08T11:41:55.583Z,45.39
2023-05-08T11:42:55.630Z,44.43
2023-05-08T11:43:55.645Z,43.56
2023-05-08T11:44:55.644Z,42.50
2023-05-08T11:45:55.707Z,42.72
2023-05-08T11:46:55.879Z,42.28
2023-05-08T11:47:55.798Z,42.97
2023-05-08T11:48:55.787Z,41.99
2023-05-08T11:49:55.839Z,42.77
2023-05-08T11:50:56.115Z,41.99
2023-05-08T11:51:55.996Z,43.05
2023-05-08T11:52:56.008Z,41.77
2023-05-08T11:53:55.992Z,42.77
2023-05-08T11:54:55.984Z,41.94
2023-05-08T11:55:56.021Z,41.81
2023-05-08T11:56:56.108Z,43.87
2023-05-08T11:57:56.179Z,44.50
2023-05-08T11:58:56.402Z,44.65
2023-05-08T11:59:56.212Z,43.31
2023-05-08T12:00:56.359Z,42.79
2023-05-08T12:02:07.688Z,42.55
2023-05-08T12:02:56.503Z,42.60
2023-05-08T12:03:56.635Z,43.96
2023-05-08T12:04:56.577Z,44.78
2023-05-08T12:05:56.549Z,45.79
2023-05-08T12:06:56.540Z,46.11
2023-05-08T12:07:56.558Z,45.68
2023-05-08T12:08:56.592Z,44.65
2023-05-08T12:09:56.527Z,44.14
2023-05-08T12:10:56.525Z,44.32
2023-05-08T12:11:56.601Z,42.95
2023-05-08T12:12:56.623Z,41.02
2023-05-08T12:13:56.676Z,40.70
2023-05-08T12:14:56.710Z,41.16
2023-05-08T12:15:56.769Z,41.99
2023-05-08T12:16:56.813Z,42.97
2023-05-08T12:17:56.876Z,43.09
2023-05-08T12:18:57.220Z,42.46
2023-05-08T12:19:56.946Z,42.44
2023-05-08T12:20:57.018Z,41.11
2023-05-08T12:21:56.992Z,41.11
2023-05-08T12:22:57.063Z,40.39
2023-05-08T12:23:57.063Z,39.90
2023-05-08T12:24:57.098Z,42.08
2023-05-08T12:25:57.097Z,43.13
2023-05-08T12:26:57.151Z,42.96
2023-05-08T12:27:57.206Z,44.38
2023-05-08T12:28:57.186Z,45.51
2023-05-08T12:29:57.209Z,45.07
2023-05-08T12:30:57.704Z,44.58
2023-05-08T12:31:57.270Z,45.49
2023-05-08T12:32:57.405Z,44.60
2023-05-08T12:33:57.231Z,45.31
2023-05-08T12:34:57.237Z,44.85
2023-05-08T12:35:57.353Z,44.52
2023-05-08T12:36:57.331Z,46.57
2023-05-08T12:37:57.364Z,46.55
2023-05-08T12:38:57.404Z,45.61
2023-05-08T12:39:57.457Z,45.47
2023-05-08T12:40:57.505Z,45.03
2023-05-08T12:41:59.533Z,43.43
2023-05-08T12:42:57.660Z,43.33
2023-05-08T12:43:57.559Z,42.93
2023-05-08T12:44:57.559Z,43.84
2023-05-08T12:45:57.619Z,45.23
2023-05-08T12:46:57.746Z,46.98
2023-05-08T12:47:57.723Z,46.77
2023-05-08T12:48:57.743Z,45.89
2023-05-08T12:49:58.025Z,44.24
2023-05-08T12:50:57.814Z,44.36
2023-05-08T12:51:57.886Z,44.06
2023-05-08T12:52:57.892Z,43.87